Latest Weather Observations for Samuel Hill

IDQ60801

Issued at 6:02 pm EST Tuesday 28 February 2017 (issued every 30 minutes, with the page automatically refreshed every 10 minutes)

About weather observations | Map of weather stations | Latest weather observations for QLD | Other Formats
Station Details ID: 033308 Name: SAMUEL HILL AERO Lat: -22.74 Lon: 150.66 Height: 31.0 m
Data from the previous 72 hours. | See also: Recent months at Samuel Hill
Date/Time
EST
Temp
°C
App
Temp
°C
Dew
Point
°C
Rel
Hum
%
Delta-T
°C
Wind Press
QNH
hPa
Press
MSL
hPa
Rain since
9am
mm
Dir  Spd
km/h
Gust
km/h
Spd
kts
Gust
kts
28/06:00pm 26.5 28.8 21.3 73 3.5 E 11 15 6 8 1012.6 - -
28/05:30pm 27.1 29.2 20.9 69 4.1 E 11 19 6 10 1012.4 1012.2 11.0
28/05:00pm 27.1 28.7 20.7 68 4.2 E 13 19 7 10 1012.1 1011.9 11.0
28/04:30pm 28.2 28.4 20.2 62 5.3 ESE 19 26 10 14 1012.0 1011.8 11.0
28/04:00pm 28.5 28.7 20.2 60 5.5 ESE 19 28 10 15 1012.1 1011.9 11.0
28/03:30pm 27.3 27.6 20.4 66 4.5 ESE 19 28 10 15 1012.3 1012.1 11.0
28/03:00pm 28.1 28.4 21.6 68 4.4 SE 22 30 12 16 1012.5 1012.3 11.0
28/02:30pm 27.3 27.5 20.6 67 4.4 ESE 20 32 11 17 1012.6 1012.4 10.8
28/02:00pm 28.0 28.8 21.8 69 4.2 ESE 20 30 11 16 1012.8 1012.6 10.8
28/01:30pm 27.0 28.6 22.2 75 3.2 ESE 17 28 9 15 1013.0 1012.8 10.8
28/01:00pm 26.1 28.9 23.6 86 1.7 SE 15 24 8 13 1013.4 1013.2 10.8
28/12:41pm 25.0 27.0 22.9 88 1.4 SE 17 22 9 12 1013.6 1013.4 10.8
28/12:30pm 24.7 27.9 23.1 91 1.1 SSE 11 17 6 9 1013.8 1013.6 10.8
28/12:00pm 24.0 26.4 22.3 90 1.1 ESE 13 22 7 12 1014.2 1014.0 7.4
28/11:58am 24.2 27.2 22.6 91 1.1 ESE 11 20 6 11 1014.3 1014.1 6.4
28/11:55am 24.5 28.0 22.9 91 1.1 ESE 9 15 5 8 1014.2 1014.0 5.6
28/11:30am 23.6 24.1 21.1 86 1.6 ESE 20 32 11 17 1014.2 1014.0 4.0
28/11:26am 23.6 23.8 20.5 83 2.0 SE 20 35 11 19 1014.2 1014.0 2.4
28/11:00am 26.4 27.8 21.8 76 3.1 S 17 32 9 17 1014.1 1013.9 1.2
28/10:30am 25.3 26.8 21.2 78 2.7 S 15 20 8 11 1014.4 1014.2 1.2
28/10:00am 23.4 24.7 20.2 82 2.1 SE 13 20 7 11 1014.6 1014.4 1.2
28/09:45am 22.9 23.2 19.5 81 2.2 SSE 17 26 9 14 1014.7 1014.5 1.2
28/09:32am 24.9 26.5 21.4 81 2.3 ESE 15 24 8 13 1014.6 1014.4 1.2
28/09:30am 25.3 27.0 21.6 80 2.5 ESE 15 32 8 17 1014.5 1014.3 1.2
28/09:00am 25.6 27.9 22.1 81 2.3 SSE 13 22 7 12 1014.2 1014.0 2.0
28/08:30am 25.7 28.3 22.0 80 2.5 SSE 11 17 6 9 1014.3 1014.1 2.0
28/08:00am 24.0 26.2 21.1 84 1.9 SSE 11 17 6 9 1014.1 1013.9 2.0
28/07:30am 22.4 24.6 20.3 88 1.4 SE 9 19 5 10 1013.9 1013.7 2.0
28/07:00am 21.7 23.1 19.6 88 1.3 SE 11 17 6 9 1013.7 1013.5 2.0
28/06:30am 22.1 24.2 20.2 89 1.2 ESE 9 13 5 7 1013.7 1013.5 1.8
28/06:00am 22.3 25.2 20.6 90 1.1 SW 6 15 3 8 1013.4 1013.2 1.0
28/05:30am 22.1 25.4 20.0 88 1.3 ENE 2 6 1 3 1013.0 1012.8 0.8
28/05:00am 21.5 24.1 20.0 91 1.0 W 6 24 3 13 1012.9 1012.7 0.8
28/04:30am 21.5 24.8 20.0 91 1.0 S 2 7 1 4 1012.6 1012.4 0.8
28/04:00am 21.4 23.6 19.7 90 1.1 WSW 7 11 4 6 1012.6 1012.4 0.8
28/03:30am 21.8 24.3 19.9 89 1.2 WSW 6 9 3 5 1012.7 1012.5 0.6
28/03:00am 22.2 26.0 20.1 88 1.4 CALM 0 0 0 0 1012.6 1012.4 0.6
28/02:30am 22.5 24.6 20.2 87 1.5 NE 9 11 5 6 1012.9 1012.7 0.6
28/02:00am 23.0 24.8 19.6 81 2.2 ENE 9 17 5 9 1013.1 1012.9 0.6
28/01:30am 24.1 26.5 20.0 78 2.7 ESE 7 13 4 7 1013.5 1013.3 0.0
28/01:00am 24.1 26.0 19.8 77 2.8 SE 9 11 5 6 1013.7 1013.5 0.0
28/12:30am 24.2 25.9 19.3 74 3.1 SE 9 15 5 8 1013.9 1013.7 0.0
28/12:00am 24.9 26.3 19.5 72 3.5 ESE 11 17 6 9 1014.0 1013.8 0.0
 
Date/Time
EST
Temp
°C
App
Temp
°C
Dew
Point
°C
Rel
Hum
%
Delta-T
°C
Wind Press
QNH
hPa
Press
MSL
hPa
Rain since
9am
mm
Dir  Spd
km/h
Gust
km/h
Spd
kts
Gust
kts
27/11:30pm 24.8 26.0 19.8 74 3.2 ESE 13 17 7 9 1014.2 1014.0 0.0
27/11:00pm 24.9 26.1 19.9 74 3.2 ESE 13 22 7 12 1014.3 1014.1 0.0
27/10:30pm 24.6 26.1 19.7 74 3.2 ESE 11 15 6 8 1014.5 1014.3 0.0
27/10:00pm 24.5 25.9 19.6 74 3.2 SE 11 13 6 7 1014.4 1014.2 0.0
27/09:30pm 24.9 26.0 19.7 73 3.4 SE 13 17 7 9 1014.3 1014.1 0.0
27/09:00pm 25.3 27.0 20.1 73 3.4 SE 11 17 6 9 1014.0 1013.8 0.0
27/08:30pm 25.3 26.6 20.1 73 3.4 ESE 13 24 7 13 1014.0 1013.8 0.0
27/08:00pm 24.4 26.6 20.5 79 2.5 SE 9 15 5 8 1013.8 1013.6 0.0
27/07:30pm 24.4 26.6 20.5 79 2.5 SE 9 13 5 7 1013.5 1013.3 0.0
27/07:00pm 24.7 26.8 20.2 76 2.9 SE 9 13 5 7 1013.2 1013.0 0.0
27/06:30pm 25.5 27.1 19.9 71 3.6 ESE 11 17 6 9 1012.9 1012.7 0.0
27/06:00pm 26.3 27.3 19.4 66 4.5 ESE 13 22 7 12 1012.5 1012.3 0.0
27/05:30pm 26.9 26.8 18.7 60 5.2 ESE 17 26 9 14 1012.4 1012.2 0.0
27/05:00pm 27.2 28.0 19.8 64 4.8 ESE 15 26 8 14 1012.1 1011.9 0.0
27/04:30pm 28.2 28.5 19.7 60 5.5 ESE 17 26 9 14 1011.8 1011.6 0.0
27/04:00pm 28.4 28.6 20.2 61 5.4 E 19 28 10 15 1011.6 1011.4 0.0
27/03:30pm 29.0 28.7 19.6 57 6.1 ESE 20 32 11 17 1011.8 1011.6 0.0
27/03:00pm 28.4 27.5 19.9 60 5.6 SE 24 37 13 20 1012.0 1011.8 0.0
27/02:30pm 27.8 27.2 19.8 61 5.2 ESE 22 33 12 18 1012.3 1012.1 0.0
27/02:00pm 28.4 27.9 19.9 60 5.6 ESE 22 37 12 20 1012.6 1012.4 0.0
27/01:30pm 27.6 27.3 19.1 59 5.5 ESE 19 30 10 16 1012.9 1012.7 0.0
27/01:00pm 28.9 29.4 21.1 62 5.2 ESE 20 30 11 16 1013.3 1013.1 0.0
27/12:30pm 27.7 27.8 20.0 63 5.0 SE 19 35 10 19 1013.6 1013.4 0.0
27/12:00pm 28.9 28.7 19.8 58 6.0 SE 20 32 11 17 1013.9 1013.7 0.0
27/11:30am 28.4 28.1 19.1 57 6.0 SE 19 30 10 16 1014.4 1014.2 0.0
27/11:00am 27.7 27.8 20.3 64 4.9 ESE 20 33 11 18 1014.5 1014.3 0.0
27/10:30am 28.4 28.6 20.2 61 5.4 ESE 19 28 10 15 1014.8 1014.6 0.0
27/10:00am 27.2 27.5 20.3 66 4.5 SE 19 30 10 16 1014.9 1014.7 0.0
27/09:30am 26.6 27.9 21.6 74 3.3 SE 17 26 9 14 1014.6 1014.4 0.0
27/09:00am 26.0 26.4 20.6 72 3.5 SE 19 28 10 15 1014.7 1014.5 -
27/08:30am 24.6 24.8 20.1 76 2.9 SSE 19 26 10 14 1014.5 1014.3 -
27/08:00am 24.2 25.2 20.3 79 2.5 SSE 15 20 8 11 1014.2 1014.0 -
27/07:30am 23.4 25.0 20.7 85 1.8 S 13 19 7 10 1013.9 1013.7 -
27/07:00am 21.7 23.3 20.0 90 1.1 S 11 15 6 8 1013.7 1013.5 -
27/06:30am 21.0 22.2 19.1 89 1.2 SSE 11 17 6 9 1013.4 1013.2 -
27/06:00am 20.9 20.8 18.8 88 1.3 SE 17 26 9 14 1013.2 1013.0 -
27/05:37am 22.1 24.0 20.6 91 1.0 SSE 11 19 6 10 1013.2 1013.0 -
27/05:30am 22.0 24.2 20.5 91 1.0 S 9 13 5 7 1013.2 1013.0 -
27/05:26am 22.0 24.6 20.5 91 1.0 S 7 13 4 7 1013.1 1012.9 -
27/05:05am 22.0 24.3 19.9 88 1.3 ESE 7 11 4 6 1013.1 1012.9 -
27/05:00am 22.0 23.9 19.7 87 1.5 E 9 13 5 7 1013.0 1012.8 -
27/04:50am 22.5 23.9 19.5 83 1.9 E 11 17 6 9 1013.3 1013.1 -
27/04:30am 22.6 25.2 20.5 88 1.4 E 7 11 4 6 1012.9 1012.7 -
27/04:00am 22.2 24.7 19.9 87 1.5 SSE 6 7 3 4 1012.7 1012.5 -
27/03:30am 23.0 25.0 20.0 83 1.9 ESE 9 17 5 9 1012.7 1012.5 -
27/03:00am 24.3 26.0 19.4 74 3.1 SSE 9 13 5 7 1012.8 1012.6 0.0
27/02:30am 24.9 25.9 19.5 72 3.5 ESE 13 22 7 12 1012.7 1012.5 -
27/02:00am 24.1 25.9 19.6 76 2.9 E 9 13 5 7 1013.1 1012.9 -
27/01:30am 24.5 26.7 19.6 74 3.2 SE 7 9 4 5 1013.2 1013.0 -
27/01:00am 24.7 26.7 19.1 71 3.6 SE 7 11 4 6 1013.3 1013.1 -
27/12:30am 25.3 26.5 19.0 68 4.0 ESE 11 19 6 10 1013.7 1013.5 -
27/12:00am 25.4 26.6 19.1 68 4.0 ESE 11 17 6 9 1014.0 1013.8 -
 
Date/Time
EST
Temp
°C
App
Temp
°C
Dew
Point
°C
Rel
Hum
%
Delta-T
°C
Wind Press
QNH
hPa
Press
MSL
hPa
Rain since
9am
mm
Dir  Spd
km/h
Gust
km/h
Spd
kts
Gust
kts
26/11:30pm 25.7 27.0 19.3 67 4.1 ESE 11 19 6 10 1014.1 1013.9 -
26/11:00pm 26.0 26.6 19.4 67 4.3 ESE 15 20 8 11 1013.8 1013.6 -
26/10:30pm 25.8 26.9 19.7 69 3.9 ESE 13 20 7 11 1013.3 1013.1 -
26/10:00pm 25.9 27.4 19.8 69 4.0 E 11 24 6 13 1013.3 1013.1 -
26/09:30pm 26.0 26.7 19.6 68 4.1 ESE 15 22 8 12 1013.6 1013.4 -
26/09:00pm 25.9 27.1 19.8 69 4.0 E 13 20 7 11 1013.3 1013.1 0.0
26/08:30pm 25.8 26.9 19.7 69 3.9 ESE 13 22 7 12 1013.5 1013.3 -
26/08:00pm 25.8 27.5 20.1 71 3.7 ESE 11 17 6 9 1013.2 1013.0 -
26/07:30pm 25.7 27.9 20.3 72 3.5 ESE 9 15 5 8 1012.8 1012.6 -
26/07:00pm 25.7 27.2 19.8 70 3.8 ESE 11 17 6 9 1012.2 1012.0 -
26/06:30pm 26.0 27.8 19.6 68 4.1 ESE 9 13 5 7 1012.0 1011.8 -
26/06:00pm 26.6 27.6 19.5 65 4.6 E 13 24 7 13 1011.7 1011.5 -
26/05:30pm 27.3 28.1 19.9 64 4.8 E 15 24 8 13 1011.2 1011.0 -
26/05:00pm 28.1 27.8 19.1 58 5.8 ENE 19 24 10 13 1011.0 1010.8 -
26/04:30pm 28.6 28.0 18.4 54 6.5 ESE 19 30 10 16 1011.1 1010.9 -
26/04:00pm 28.7 27.8 18.2 53 6.7 ESE 20 32 11 17 1011.3 1011.1 -
26/03:30pm 29.2 28.4 18.0 51 7.1 ESE 19 35 10 19 1011.3 1011.1 -
26/03:00pm 29.4 28.0 17.9 50 7.3 ESE 22 33 12 18 1011.3 1011.1 -
26/02:30pm 29.7 28.4 19.1 53 6.9 ESE 24 33 13 18 1011.3 1011.1 -
26/02:00pm 29.1 28.1 19.7 57 6.1 SE 24 39 13 21 1011.6 1011.4 -
26/01:30pm 30.2 30.9 21.6 60 5.8 ESE 20 33 11 18 1011.6 1011.4 -
26/01:00pm 30.0 30.2 20.5 56 6.3 SE 20 33 11 18 1012.0 1011.8 -
26/12:30pm 29.9 29.5 20.2 56 6.4 SE 22 33 12 18 1012.3 1012.1 -
26/12:00pm 29.3 29.3 20.2 58 6.0 E 20 30 11 16 1012.5 1012.3 -
26/11:30am 29.7 29.6 20.0 56 6.4 ESE 20 30 11 16 1012.9 1012.7 -
26/11:00am 29.0 29.7 21.2 62 5.2 SSE 19 28 10 15 1013.0 1012.8 -
26/10:30am 29.0 28.7 19.6 57 6.1 SE 20 28 11 15 1013.2 1013.0 -
26/10:00am 28.9 29.2 20.4 60 5.6 ESE 19 33 10 18 1013.4 1013.2 0.0
26/09:30am 28.5 27.4 18.6 55 6.4 ESE 22 32 12 17 1013.5 1013.3 0.0
26/09:00am 28.4 27.1 18.2 54 6.5 ESE 22 32 12 17 1013.6 1013.4 0.2
26/08:30am 27.5 27.4 19.6 62 5.1 ESE 19 28 10 15 1013.4 1013.2 0.2
26/08:00am 27.5 27.4 19.6 62 5.1 ESE 19 30 10 16 1013.3 1013.1 0.2
26/07:30am 25.5 27.0 18.9 67 4.2 SE 9 20 5 11 1013.1 1012.9 0.2
26/07:00am 25.8 27.5 19.4 67 4.1 ESE 9 15 5 8 1012.8 1012.6 0.2
26/06:30am 23.1 24.7 18.2 74 3.1 ESE 7 9 4 5 1012.5 1012.3 0.2
26/06:00am 22.6 23.9 17.5 73 3.2 SE 7 9 4 5 1012.2 1012.0 0.2
26/05:30am 23.0 23.9 17.5 71 3.4 SE 9 15 5 8 1011.9 1011.7 0.2
26/05:00am 23.2 23.8 17.7 71 3.4 SE 11 15 6 8 1011.6 1011.4 0.2
26/04:30am 23.2 24.2 17.7 71 3.4 SE 9 13 5 7 1011.5 1011.3 0.2
26/04:00am 23.3 24.2 17.5 70 3.6 SE 9 13 5 7 1011.3 1011.1 0.2
26/03:30am 23.7 24.7 17.7 69 3.7 SE 9 11 5 6 1011.3 1011.1 0.2
26/03:00am 24.1 25.2 18.1 69 3.8 SE 9 13 5 7 1011.3 1011.1 0.2
26/02:30am 24.5 25.2 18.0 67 4.1 SE 11 17 6 9 1011.3 1011.1 0.2
26/02:00am 25.0 25.5 18.4 66 4.2 ESE 13 20 7 11 1011.2 1011.0 0.2
26/01:30am 25.4 25.2 18.6 66 4.3 ESE 17 24 9 13 1011.5 1011.3 0.2
26/01:00am 25.3 25.9 18.5 66 4.3 ESE 13 22 7 12 1011.9 1011.7 0.2
26/12:30am 25.6 26.1 19.3 68 4.1 ESE 15 22 8 12 1012.3 1012.1 0.2
26/12:00am 25.4 25.6 19.3 69 3.9 ESE 17 22 9 12 1012.6 1012.4 0.2
 
Date/Time
EST
Temp
°C
App
Temp
°C
Dew
Point
°C
Rel
Hum
%
Delta-T
°C
Wind Press
QNH
hPa
Press
MSL
hPa
Rain since
9am
mm
Dir  Spd
km/h
Gust
km/h
Spd
kts
Gust
kts
25/11:30pm 25.5 25.7 19.4 69 3.9 ESE 17 24 9 13 1013.0 1012.8 0.2
25/11:00pm 25.6 26.7 19.7 70 3.8 ESE 13 20 7 11 1013.1 1012.9 0.2
25/10:30pm 25.6 27.3 20.2 72 3.5 ESE 11 19 6 10 1013.2 1013.0 0.2
25/10:00pm 25.4 27.2 20.4 74 3.3 ESE 11 17 6 9 1013.0 1012.8 0.2
25/09:30pm 25.3 27.5 20.5 75 3.1 ESE 9 15 5 8 1012.9 1012.7 0.2
25/09:00pm 25.3 27.3 20.8 76 3.0 E 11 19 6 10 1012.7 1012.5 0.2
25/08:30pm 25.4 27.6 21.1 77 2.8 E 11 17 6 9 1012.6 1012.4 0.2
25/08:00pm 25.3 27.9 21.2 78 2.7 ESE 9 17 5 9 1012.4 1012.2 0.2
25/07:30pm 24.9 27.7 20.8 78 2.7 ESE 7 11 4 6 1012.4 1012.2 0.2
25/07:00pm 25.5 27.8 20.7 75 3.2 ESE 9 13 5 7 1012.1 1011.9 0.2
25/06:30pm 26.1 27.8 20.9 73 3.4 ESE 13 22 7 12 1012.0 1011.8 0.2

Other Formats:

Comma delimited format used in spreadsheet applications
http://www.bom.gov.au/fwo/IDQ60801/IDQ60801.94370.axf

JavaScript Object Notation format (JSON) in row-major order
http://www.bom.gov.au/fwo/IDQ60801/IDQ60801.94370.json